Time;durP1;ratioP1;P1;durP2;ratioP2;P2;SDS_P1;SDS_P2;PMS_P1;PMS_P2;Temp;Humidity;BMP_temperature;BMP_pressure;BME280_temperature;BME280_humidity;BME280_pressure;Samples;Min_cycle;Max_cycle;Signal;HPM_P1;HPM_P2
2021/12/08 00:00:17;;;;;;;9.85;3.35;;;4.40;99.90;;;;;;5052308;28;20112;-84
2021/12/08 00:02:43;;;;;;;8.65;3.42;;;4.40;99.90;;;;;;5034133;28;20033;-85
2021/12/08 00:05:11;;;;;;;12.68;3.78;;;4.40;99.90;;;;;;5034472;28;20505;-85
2021/12/08 00:07:37;;;;;;;11.20;3.45;;;4.40;99.90;;;;;;5034299;28;20044;-85
2021/12/08 00:10:16;;;;;;;11.50;3.88;;;4.40;99.90;;;;;;5017871;28;20267;-85
2021/12/08 00:13:05;;;;;;;12.32;3.85;;;4.40;99.90;;;;;;5017544;28;20040;-85
2021/12/08 00:15:31;;;;;;;11.18;3.70;;;4.30;99.90;;;;;;5066658;28;20045;-85
2021/12/08 00:17:58;;;;;;;11.25;3.50;;;4.30;99.90;;;;;;5033633;28;20037;-85
2021/12/08 00:20:24;;;;;;;10.10;3.78;;;4.30;99.90;;;;;;5017671;28;20079;-85
2021/12/08 00:22:49;;;;;;;11.80;3.28;;;4.30;99.90;;;;;;5035502;28;20057;-85
2021/12/08 00:25:15;;;;;;;10.70;3.60;;;4.30;99.90;;;;;;5053672;28;20448;-85
2021/12/08 00:27:40;;;;;;;12.45;3.58;;;4.40;99.90;;;;;;5053993;28;20516;-85
2021/12/08 00:30:07;;;;;;;9.30;3.88;;;4.30;99.90;;;;;;5053908;28;20128;-82
2021/12/08 00:32:35;;;;;;;9.40;3.13;;;4.40;99.90;;;;;;5050786;28;20036;-83
2021/12/08 00:35:02;;;;;;;11.13;3.90;;;4.40;99.90;;;;;;5050207;28;20065;-83
2021/12/08 00:37:28;;;;;;;12.07;3.58;;;4.40;99.90;;;;;;5033615;28;20037;-83
2021/12/08 00:39:54;;;;;;;13.02;3.38;;;4.40;99.90;;;;;;5049799;28;20125;-83
2021/12/08 00:42:20;;;;;;;8.18;3.15;;;4.40;99.90;;;;;;5050645;28;20053;-83
2021/12/08 00:44:46;;;;;;;13.57;3.92;;;4.40;99.90;;;;;;5050044;28;20417;-83
2021/12/08 00:47:12;;;;;;;11.88;3.33;;;4.40;99.90;;;;;;5050334;28;20040;-84
2021/12/08 00:49:39;;;;;;;11.15;3.22;;;4.40;99.90;;;;;;5050290;28;20415;-84
2021/12/08 00:52:06;;;;;;;8.73;3.20;;;4.40;99.90;;;;;;5050415;28;20132;-84
2021/12/08 00:54:31;;;;;;;9.65;3.45;;;4.40;99.90;;;;;;5050028;28;20043;-84
2021/12/08 00:56:57;;;;;;;12.00;4.00;;;4.40;99.90;;;;;;5050371;28;20127;-83
2021/12/08 00:59:23;;;;;;;10.23;3.67;;;4.50;99.90;;;;;;5033569;28;20037;-85
2021/12/08 01:01:49;;;;;;;12.50;3.42;;;4.50;99.90;;;;;;5033025;28;20049;-84
2021/12/08 01:04:15;;;;;;;10.43;3.85;;;4.50;99.90;;;;;;5033034;28;20040;-85
2021/12/08 01:06:42;;;;;;;11.35;3.70;;;4.50;99.90;;;;;;5049527;28;20053;-84
2021/12/08 01:09:09;;;;;;;11.25;3.10;;;4.50;99.90;;;;;;5033537;28;20037;-84
2021/12/08 01:11:34;;;;;;;9.82;2.92;;;4.50;99.90;;;;;;5050103;28;20067;-84
2021/12/08 01:14:00;;;;;;;9.93;4.00;;;4.50;99.90;;;;;;5049357;28;20057;-85
2021/12/08 01:16:25;;;;;;;11.15;3.38;;;4.50;99.90;;;;;;5033660;28;20037;-85
2021/12/08 01:18:51;;;;;;;12.00;3.53;;;4.50;99.90;;;;;;5049771;28;20043;-84
2021/12/08 01:21:18;;;;;;;8.95;3.22;;;4.50;99.90;;;;;;5049553;28;20120;-84
2021/12/08 01:23:44;;;;;;;11.40;3.15;;;4.50;99.90;;;;;;5031608;28;20044;-84
2021/12/08 01:26:10;;;;;;;11.27;3.08;;;4.50;99.90;;;;;;5048921;28;20052;-84
2021/12/08 01:28:36;;;;;;;11.55;3.58;;;4.50;99.90;;;;;;5050692;28;20041;-84
2021/12/08 01:31:04;;;;;;;7.85;3.03;;;4.60;99.90;;;;;;5033773;28;20033;-85
2021/12/08 01:33:32;;;;;;;8.45;3.40;;;4.60;99.90;;;;;;5052135;28;20514;-85
2021/12/08 01:36:01;;;;;;;10.70;3.35;;;4.50;99.90;;;;;;5052745;28;20068;-85
2021/12/08 01:38:27;;;;;;;9.77;2.83;;;4.60;99.90;;;;;;5036514;28;20409;-84
2021/12/08 01:40:52;;;;;;;9.85;3.03;;;4.60;99.90;;;;;;5052520;28;20037;-85
2021/12/08 01:43:27;;;;;;;10.88;2.85;;;4.60;99.90;;;;;;5052880;28;20452;-85
2021/12/08 01:46:02;;;;;;;8.95;2.70;;;4.60;99.90;;;;;;5052618;28;20046;-85
2021/12/08 01:48:34;;;;;;;9.38;3.03;;;4.60;99.90;;;;;;5052767;28;20086;-85
2021/12/08 01:51:12;;;;;;;9.32;2.55;;;4.60;99.90;;;;;;5053062;28;20135;-85
2021/12/08 01:53:40;;;;;;;8.88;2.92;;;4.60;99.90;;;;;;5052110;28;20055;-85
2021/12/08 01:56:07;;;;;;;9.05;2.90;;;4.60;99.90;;;;;;5052651;28;20036;-85
2021/12/08 01:58:33;;;;;;;9.32;3.20;;;4.60;99.90;;;;;;5035827;28;20040;-85
2021/12/08 02:01:03;;;;;;;9.35;3.00;;;4.60;99.90;;;;;;5052650;28;20044;-85
2021/12/08 02:03:29;;;;;;;9.65;2.67;;;4.60;99.90;;;;;;5034048;28;20094;-84
2021/12/08 02:05:55;;;;;;;8.40;2.78;;;4.60;99.90;;;;;;5052196;28;20490;-84
2021/12/08 02:08:21;;;;;;;10.20;3.05;;;4.60;99.90;;;;;;5035630;28;20043;-85
2021/12/08 02:10:47;;;;;;;8.15;2.72;;;4.60;99.90;;;;;;5036265;28;20044;-85
2021/12/08 02:13:14;;;;;;;7.28;2.83;;;4.60;99.90;;;;;;5036135;28;20509;-85
2021/12/08 02:15:40;;;;;;;8.35;2.30;;;4.70;99.90;;;;;;5052270;28;20111;-85
2021/12/08 02:18:08;;;;;;;8.85;2.80;;;4.70;99.90;;;;;;5036339;28;20044;-85
2021/12/08 02:20:35;;;;;;;7.53;2.50;;;4.70;99.90;;;;;;5052660;28;20052;-84
2021/12/08 02:23:01;;;;;;;8.82;2.65;;;4.70;99.90;;;;;;5051479;28;20057;-85
2021/12/08 02:25:27;;;;;;;7.55;2.42;;;4.70;99.90;;;;;;5035453;28;20040;-85
2021/12/08 02:27:56;;;;;;;9.38;2.65;;;4.70;99.90;;;;;;5035520;28;20085;-85
2021/12/08 02:30:32;;;;;;;7.30;2.35;;;4.70;99.90;;;;;;5052337;28;20040;-85
2021/12/08 02:46:52;;;;;;;6.97;3.10;;;4.70;99.90;;;;;;5055636;28;20062;-85
2021/12/08 02:49:20;;;;;;;8.07;2.63;;;4.70;99.90;;;;;;5055410;28;20076;-85
2021/12/08 02:51:47;;;;;;;11.98;2.90;;;4.70;99.90;;;;;;5039212;28;20033;-85
2021/12/08 02:54:12;;;;;;;10.10;3.25;;;4.70;99.90;;;;;;5038274;28;20098;-85
2021/12/08 02:56:38;;;;;;;11.68;3.08;;;4.70;99.90;;;;;;5055377;28;20048;-85
2021/12/08 02:59:05;;;;;;;8.32;2.92;;;4.70;99.90;;;;;;5055498;28;20040;-85
2021/12/08 03:01:31;;;;;;;9.63;3.53;;;4.70;99.90;;;;;;5055502;28;20045;-85
2021/12/08 03:03:57;;;;;;;7.15;2.97;;;4.80;99.90;;;;;;5072991;28;20489;-85
2021/12/08 03:06:23;;;;;;;11.93;3.72;;;4.80;99.90;;;;;;5055511;28;20115;-85
2021/12/08 03:08:49;;;;;;;8.55;2.92;;;4.80;99.90;;;;;;5055108;28;20391;-85
2021/12/08 03:11:15;;;;;;;9.50;3.47;;;4.80;99.90;;;;;;5055727;28;20040;-85
2021/12/08 03:13:56;;;;;;;7.05;2.78;;;4.80;99.90;;;;;;5038337;28;20202;-85
2021/12/08 03:16:22;;;;;;;8.30;3.33;;;4.80;99.90;;;;;;5055456;28;20090;-85
2021/12/08 03:18:48;;;;;;;10.30;3.67;;;4.80;99.90;;;;;;5055195;28;20444;-85
2021/12/08 03:21:13;;;;;;;9.15;3.42;;;4.90;99.90;;;;;;5054853;28;20033;-85
2021/12/08 03:23:54;;;;;;;10.32;3.72;;;4.90;99.90;;;;;;5054327;28;20037;-85
2021/12/08 03:26:26;;;;;;;7.78;3.50;;;4.90;99.90;;;;;;5055133;28;20501;-85
2021/12/08 03:29:00;;;;;;;10.93;3.42;;;4.90;99.90;;;;;;5054959;28;20044;-85
2021/12/08 03:31:32;;;;;;;10.43;3.92;;;4.90;99.90;;;;;;5038150;28;20075;-85
2021/12/08 03:33:58;;;;;;;12.18;3.90;;;4.90;99.90;;;;;;5054784;28;20048;-85
2021/12/08 03:36:24;;;;;;;9.65;3.65;;;4.90;99.90;;;;;;5055446;28;20036;-84
2021/12/08 03:38:50;;;;;;;8.00;3.35;;;4.90;99.90;;;;;;5055205;28;20410;-85
2021/12/08 03:41:15;;;;;;;11.50;3.75;;;5.00;99.90;;;;;;5038743;28;20490;-85
2021/12/08 03:43:41;;;;;;;8.45;4.03;;;5.00;99.90;;;;;;5054820;28;20464;-85
2021/12/08 03:46:11;;;;;;;8.90;4.00;;;5.00;99.90;;;;;;5038583;28;20069;-85
2021/12/08 03:48:47;;;;;;;11.27;3.95;;;5.00;99.90;;;;;;5038162;28;20051;-85
2021/12/08 03:51:15;;;;;;;11.50;3.70;;;5.00;99.90;;;;;;5057651;28;20076;-84
2021/12/08 03:53:41;;;;;;;8.73;4.15;;;5.10;99.90;;;;;;5065393;28;20401;-85
2021/12/08 03:56:07;;;;;;;10.90;4.15;;;5.10;99.90;;;;;;5076043;28;20047;-84
2021/12/08 03:58:33;;;;;;;10.48;4.40;;;5.10;99.90;;;;;;5075598;28;20032;-84
2021/12/08 04:00:59;;;;;;;9.05;4.57;;;5.20;99.90;;;;;;5058778;28;20032;-84
2021/12/08 04:03:27;;;;;;;9.20;4.32;;;5.20;99.90;;;;;;5074548;28;20040;-84
2021/12/08 04:05:59;;;;;;;9.85;4.45;;;5.20;99.90;;;;;;5074855;28;20131;-85
2021/12/08 04:08:32;;;;;;;10.23;4.43;;;5.30;99.90;;;;;;5074152;28;20044;-84
2021/12/08 04:11:03;;;;;;;12.38;4.75;;;5.30;99.90;;;;;;5057190;28;20089;-85
2021/12/08 04:13:34;;;;;;;11.18;4.45;;;5.30;99.90;;;;;;5057035;28;20512;-85
2021/12/08 04:16:00;;;;;;;10.23;5.10;;;5.40;99.90;;;;;;5073651;28;20036;-85
2021/12/08 04:18:25;;;;;;;12.45;5.22;;;5.40;99.90;;;;;;5057325;28;20036;-85
2021/12/08 04:20:57;;;;;;;10.45;5.43;;;5.40;99.90;;;;;;5074519;28;20075;-85
2021/12/08 04:23:25;;;;;;;11.47;4.57;;;5.50;99.90;;;;;;5066504;28;20131;-85
2021/12/08 04:25:54;;;;;;;10.00;5.15;;;5.50;99.90;;;;;;5053950;28;20502;-85
2021/12/08 04:28:24;;;;;;;9.23;4.90;;;5.60;99.90;;;;;;5054522;28;20049;-85
2021/12/08 04:30:55;;;;;;;8.57;5.03;;;5.60;99.90;;;;;;5037655;28;20056;-85
2021/12/08 04:33:21;;;;;;;9.07;4.40;;;5.60;99.90;;;;;;5053384;28;20424;-85
2021/12/08 04:35:52;;;;;;;9.82;4.80;;;5.60;99.90;;;;;;5053340;28;20039;-85
2021/12/08 04:38:24;;;;;;;12.70;4.55;;;5.70;99.90;;;;;;5036714;28;20036;-85
2021/12/08 04:41:02;;;;;;;;;;;5.70;99.90;;;;;;5037945;28;20489;-85
2021/12/08 04:43:40;;;;;;;9.45;4.25;;;5.70;99.90;;;;;;5053232;28;19922;-85
2021/12/08 04:46:42;;;;;;;9.57;5.38;;;5.70;99.90;;;;;;5053416;28;20044;-85
2021/12/08 04:52:04;;;;;;;10.00;4.78;;;5.70;99.90;;;;;;5053489;28;20511;-85
2021/12/08 05:01:09;;;;;;;10.75;4.88;;;5.80;99.90;;;;;;5053308;28;20048;-85
2021/12/08 05:06:18;;;;;;;11.35;5.07;;;5.80;99.90;;;;;;5044644;28;20143;-85
2021/12/08 05:08:47;;;;;;;10.90;4.80;;;5.80;99.90;;;;;;5033062;28;20122;-85
2021/12/08 05:11:27;;;;;;;10.32;5.30;;;5.80;99.90;;;;;;5016099;28;20456;-84
2021/12/08 05:14:05;;;;;;;9.77;4.75;;;5.80;99.90;;;;;;5015629;28;20124;-84
2021/12/08 05:16:33;;;;;;;10.32;4.90;;;5.90;99.90;;;;;;5032502;28;20037;-85
2021/12/08 05:19:03;;;;;;;11.70;5.30;;;5.90;99.90;;;;;;5033131;28;20075;-84
2021/12/08 05:21:28;;;;;;;9.45;4.90;;;5.90;99.90;;;;;;5032825;28;20064;-84
2021/12/08 05:24:03;;;;;;;10.95;5.18;;;5.90;99.90;;;;;;5032200;28;20497;-84
2021/12/08 05:26:43;;;;;;;11.43;5.60;;;5.90;99.90;;;;;;5016581;28;20467;-84
2021/12/08 05:29:17;;;;;;;10.93;4.78;;;5.90;99.90;;;;;;5032774;28;20051;-85
2021/12/08 05:31:44;;;;;;;11.88;4.90;;;6.00;99.90;;;;;;5016320;28;20051;-84
2021/12/08 05:34:09;;;;;;;8.93;4.72;;;6.00;99.90;;;;;;5049715;28;20044;-84
2021/12/08 05:36:36;;;;;;;10.07;4.47;;;6.00;99.90;;;;;;5050134;28;20040;-85
2021/12/08 05:39:08;;;;;;;10.20;4.72;;;6.10;99.90;;;;;;5015154;28;20040;-85
2021/12/08 05:41:37;;;;;;;9.88;4.07;;;6.10;99.90;;;;;;5032150;28;20104;-85
2021/12/08 05:44:04;;;;;;;10.00;4.18;;;6.10;99.90;;;;;;5031811;28;20559;-85
2021/12/08 05:46:32;;;;;;;10.25;4.00;;;6.10;99.90;;;;;;5031757;28;20040;-84
2021/12/08 05:48:59;;;;;;;10.07;4.28;;;6.10;99.90;;;;;;5032017;28;20041;-85
2021/12/08 05:51:29;;;;;;;11.30;4.07;;;6.10;99.90;;;;;;5032739;28;20194;-84
2021/12/08 05:54:00;;;;;;;9.13;4.00;;;6.10;99.90;;;;;;5032044;28;20045;-84
2021/12/08 05:56:26;;;;;;;10.10;4.43;;;6.10;99.90;;;;;;5015722;28;20076;-84
2021/12/08 05:58:55;;;;;;;10.15;4.13;;;6.20;99.90;;;;;;5015758;28;20033;-84
2021/12/08 06:01:27;;;;;;;11.45;4.68;;;6.20;99.90;;;;;;5015409;28;20410;-84
2021/12/08 06:03:53;;;;;;;9.40;4.07;;;6.20;99.90;;;;;;5023341;28;20040;-85
2021/12/08 06:06:22;;;;;;;9.15;4.28;;;6.20;99.90;;;;;;5051740;28;20421;-84
2021/12/08 06:08:49;;;;;;;10.68;3.95;;;6.10;99.90;;;;;;5035415;28;20185;-85
2021/12/08 06:11:15;;;;;;;10.18;4.22;;;6.10;99.90;;;;;;5052403;28;20071;-85
2021/12/08 06:13:42;;;;;;;10.55;3.95;;;6.10;99.90;;;;;;5053237;28;20056;-85
2021/12/08 06:16:10;;;;;;;9.52;4.05;;;6.10;99.90;;;;;;5055811;28;20201;-84
2021/12/08 06:18:39;;;;;;;7.93;3.42;;;6.10;99.90;;;;;;5056512;28;20048;-84
2021/12/08 06:21:08;;;;;;;8.82;3.72;;;6.10;99.90;;;;;;5056253;28;20573;-84
2021/12/08 06:23:35;;;;;;;8.70;3.83;;;6.10;99.90;;;;;;5063836;28;20555;-84
2021/12/08 06:26:01;;;;;;;9.32;3.50;;;6.10;99.90;;;;;;5076035;28;20054;-83
2021/12/08 06:28:27;;;;;;;8.20;3.67;;;6.10;99.90;;;;;;5075589;28;20123;-84
2021/12/08 06:30:53;;;;;;;10.23;4.18;;;6.10;99.90;;;;;;5058725;28;20032;-84
2021/12/08 06:33:22;;;;;;;10.35;3.63;;;6.10;99.90;;;;;;5075105;28;20040;-84
2021/12/08 06:35:51;;;;;;;11.18;3.75;;;6.10;99.90;;;;;;5075187;28;20097;-84
2021/12/08 06:38:18;;;;;;;10.38;3.55;;;6.10;99.90;;;;;;5076025;28;20508;-84
2021/12/08 06:40:56;;;;;;;9.75;3.83;;;6.10;99.90;;;;;;5075849;28;20040;-85
2021/12/08 06:43:26;;;;;;;9.82;3.50;;;6.10;99.90;;;;;;5074920;28;20408;-84
2021/12/08 06:45:55;;;;;;;8.23;3.33;;;6.10;99.90;;;;;;5076081;28;20036;-85
2021/12/08 06:48:28;;;;;;;8.85;3.28;;;6.10;99.90;;;;;;5075666;28;20040;-84
2021/12/08 06:50:53;;;;;;;;;;;6.10;99.90;;;;;;5076187;28;20047;-85
2021/12/08 06:53:19;;;;;;;10.82;3.33;;;6.10;99.90;;;;;;5075656;28;19920;-85
2021/12/08 06:55:50;;;;;;;8.13;2.53;;;6.00;99.90;;;;;;5074416;28;20485;-85
2021/12/08 06:58:23;;;;;;;8.95;2.92;;;6.00;99.90;;;;;;5058064;28;20689;-84
2021/12/08 07:00:54;;;;;;;7.50;2.63;;;6.10;99.90;;;;;;5075603;28;20040;-85
2021/12/08 07:06:07;;;;;;;7.38;2.65;;;6.00;99.90;;;;;;5075994;28;20052;-85
2021/12/08 07:08:37;;;;;;;7.43;2.40;;;6.00;99.90;;;;;;5059262;28;20446;-85
2021/12/08 07:11:04;;;;;;;8.65;2.70;;;6.00;99.90;;;;;;5075573;28;20043;-85
2021/12/08 07:13:32;;;;;;;9.25;2.60;;;6.00;99.90;;;;;;5075439;28;20044;-85
2021/12/08 07:16:08;;;;;;;9.02;2.50;;;6.00;99.90;;;;;;5058855;28;20553;-85
2021/12/08 07:18:49;;;;;;;9.95;2.85;;;6.10;99.90;;;;;;5054413;28;20048;-84
2021/12/08 07:21:16;;;;;;;9.18;2.95;;;6.10;99.90;;;;;;5054622;28;20041;-84
2021/12/08 07:23:50;;;;;;;6.95;2.78;;;6.10;99.90;;;;;;5054180;28;20524;-84
2021/12/08 07:26:20;;;;;;;10.02;2.75;;;6.10;99.90;;;;;;5053514;28;20048;-84
2021/12/08 07:28:47;;;;;;;8.35;2.10;;;6.10;99.90;;;;;;5055069;28;20105;-84
2021/12/08 07:31:31;;;;;;;10.07;2.55;;;6.10;99.90;;;;;;5072956;28;20037;-84
2021/12/08 07:34:03;;;;;;;8.98;2.45;;;6.10;99.90;;;;;;5054705;28;20186;-85
2021/12/08 07:36:32;;;;;;;8.95;2.15;;;6.10;99.90;;;;;;5037869;28;20657;-85
2021/12/08 07:38:59;;;;;;;11.13;2.22;;;6.10;99.90;;;;;;5037436;28;20033;-84
2021/12/08 07:41:31;;;;;;;7.90;2.05;;;6.00;99.90;;;;;;5054569;28;20425;-85
2021/12/08 07:44:03;;;;;;;8.20;2.08;;;6.00;99.90;;;;;;5054254;28;20042;-85
2021/12/08 07:46:36;;;;;;;6.72;1.85;;;6.10;99.90;;;;;;5054957;28;20043;-84
2021/12/08 07:49:12;;;;;;;9.65;2.00;;;6.10;99.90;;;;;;5054860;28;20040;-85
2021/12/08 07:51:48;;;;;;;7.95;2.08;;;6.10;99.90;;;;;;5054109;28;20159;-84
2021/12/08 07:54:15;;;;;;;12.88;2.15;;;6.10;99.90;;;;;;5047212;28;20854;-85
2021/12/08 07:56:44;;;;;;;10.48;2.08;;;6.00;99.90;;;;;;5047304;28;20028;-85
2021/12/08 07:59:12;;;;;;;10.45;2.08;;;6.10;99.90;;;;;;5053699;28;20073;-85
2021/12/08 08:01:42;;;;;;;10.60;2.35;;;6.10;99.90;;;;;;5054335;28;20093;-85
2021/12/08 08:04:11;;;;;;;6.57;2.05;;;6.00;99.90;;;;;;5037195;28;20083;-85
2021/12/08 08:06:40;;;;;;;8.75;1.90;;;6.00;99.90;;;;;;5054110;28;20165;-84
2021/12/08 08:09:10;;;;;;;9.77;1.90;;;6.10;99.90;;;;;;5038190;28;20500;-84
2021/12/08 08:11:41;;;;;;;9.48;1.80;;;6.10;99.90;;;;;;5037978;28;20048;-84
2021/12/08 08:14:10;;;;;;;9.80;2.63;;;6.00;99.90;;;;;;5054196;28;20044;-85
2021/12/08 08:16:38;;;;;;;8.82;2.20;;;6.00;99.90;;;;;;5053773;28;20041;-85
2021/12/08 08:19:15;;;;;;;7.03;1.98;;;6.00;99.90;;;;;;5053672;28;20039;-85
2021/12/08 08:21:47;;;;;;;13.30;2.13;;;6.10;99.90;;;;;;5053997;28;20036;-85
2021/12/08 08:24:14;;;;;;;7.70;1.85;;;6.10;99.90;;;;;;5052443;28;20404;-84
2021/12/08 08:26:43;;;;;;;8.50;1.98;;;6.10;99.90;;;;;;5053575;28;20127;-84
2021/12/08 08:29:09;;;;;;;6.55;1.58;;;6.10;99.90;;;;;;5054175;28;20528;-85
2021/12/08 08:31:43;;;;;;;10.27;2.25;;;6.10;99.90;;;;;;5053640;28;20123;-84
2021/12/08 08:34:10;;;;;;;7.28;1.75;;;6.10;99.90;;;;;;5036629;28;20505;-84
2021/12/08 08:36:40;;;;;;;7.57;1.92;;;6.10;99.90;;;;;;5036899;28;20082;-84
2021/12/08 08:39:20;;;;;;;10.98;2.13;;;6.10;99.90;;;;;;5065738;28;20086;-85
2021/12/08 08:41:53;;;;;;;11.02;2.20;;;6.20;99.90;;;;;;5053242;28;20452;-84
2021/12/08 08:44:29;;;;;;;13.95;1.88;;;6.20;99.90;;;;;;5060562;28;20068;-84
2021/12/08 08:46:57;;;;;;;9.88;2.05;;;6.20;99.90;;;;;;5073432;28;20044;-85
2021/12/08 08:49:29;;;;;;;8.00;2.85;;;6.20;99.90;;;;;;5073318;28;20040;-84
2021/12/08 08:52:12;;;;;;;8.20;1.97;;;6.20;99.90;;;;;;5072504;28;20075;-85
2021/12/08 08:54:40;;;;;;;;;;;6.20;99.90;;;;;;5073762;28;20766;-84
2021/12/08 08:57:08;;;;;;;10.25;2.10;;;6.20;99.90;;;;;;5069708;28;19970;-80
2021/12/08 08:59:47;;;;;;;8.85;2.20;;;6.30;99.90;;;;;;5055314;28;20074;-84
2021/12/08 09:02:28;;;;;;;9.05;2.00;;;6.30;99.90;;;;;;5048121;28;20135;-84
2021/12/08 09:04:58;;;;;;;11.50;2.08;;;6.40;99.90;;;;;;5043848;28;20040;-83
2021/12/08 09:07:34;;;;;;;10.45;2.33;;;6.40;99.90;;;;;;5038717;28;20044;-84
2021/12/08 09:10:05;;;;;;;16.95;3.00;;;6.40;99.90;;;;;;5044653;28;20040;-84
2021/12/08 09:12:33;;;;;;;10.95;2.03;;;6.40;99.90;;;;;;5037192;28;20040;-85
2021/12/08 09:15:30;;;;;;;18.00;2.67;;;6.50;99.90;;;;;;5032581;28;20096;-84
2021/12/08 09:18:10;;;;;;;8.65;1.90;;;6.50;99.90;;;;;;5017337;28;20083;-84
2021/12/08 09:20:45;;;;;;;10.27;2.50;;;6.60;99.90;;;;;;5051698;28;20033;-85
2021/12/08 09:23:23;;;;;;;10.88;2.60;;;6.60;99.90;;;;;;5052499;28;20044;-85
2021/12/08 09:25:53;;;;;;;8.10;2.25;;;6.60;99.90;;;;;;5052661;28;20494;-85
2021/12/08 09:28:30;;;;;;;11.50;2.88;;;6.60;99.90;;;;;;5052966;28;20047;-85
2021/12/08 09:31:08;;;;;;;12.98;2.63;;;6.60;99.90;;;;;;5053007;28;20037;-85
2021/12/08 09:34:00;;;;;;;9.15;2.08;;;6.60;99.90;;;;;;5052667;28;20044;-84
2021/12/08 09:36:42;;;;;;;9.65;2.13;;;6.60;99.90;;;;;;5052642;28;20051;-85
2021/12/08 09:39:20;;;;;;;10.40;2.67;;;6.60;99.90;;;;;;5036466;28;20040;-85
2021/12/08 09:42:08;;;;;;;11.52;2.55;;;6.60;99.90;;;;;;5036606;28;20047;-84
2021/12/08 09:44:41;;;;;;;10.13;2.47;;;6.60;99.90;;;;;;5052738;28;20090;-84
2021/12/08 09:47:07;;;;;;;9.32;2.63;;;6.60;99.90;;;;;;5052240;28;20048;-85
2021/12/08 09:49:34;;;;;;;10.40;2.42;;;6.60;99.90;;;;;;5052422;28;20029;-85
2021/12/08 09:52:01;;;;;;;9.55;2.20;;;6.60;99.90;;;;;;5035990;28;20072;-85
2021/12/08 09:54:27;;;;;;;8.40;2.30;;;6.60;99.90;;;;;;5036113;28;20032;-85
2021/12/08 09:56:53;;;;;;;9.43;2.25;;;6.60;99.90;;;;;;5052930;28;20044;-85
2021/12/08 09:59:21;;;;;;;8.80;2.20;;;6.60;99.90;;;;;;5052636;28;20036;-85
2021/12/08 10:01:48;;;;;;;9.70;2.50;;;6.60;99.90;;;;;;5052007;28;20037;-85
2021/12/08 10:04:14;;;;;;;8.68;2.42;;;6.60;99.90;;;;;;5050184;28;20148;-85
2021/12/08 10:06:44;;;;;;;13.88;2.72;;;6.60;99.90;;;;;;5052562;28;20037;-85
2021/12/08 10:09:10;;;;;;;10.63;2.38;;;6.60;99.90;;;;;;5035740;28;20101;-84
2021/12/08 10:11:36;;;;;;;8.88;2.20;;;6.70;99.90;;;;;;5034762;28;20119;-85
2021/12/08 10:14:03;;;;;;;7.95;2.15;;;6.80;99.90;;;;;;5031538;28;20033;-85
2021/12/08 10:16:29;;;;;;;9.75;2.70;;;6.80;99.90;;;;;;5032292;28;20033;-85
2021/12/08 10:18:56;;;;;;;9.38;2.25;;;6.70;99.90;;;;;;5031705;28;20120;-85
2021/12/08 10:21:33;;;;;;;13.30;3.38;;;6.70;99.90;;;;;;5032244;28;20517;-85
2021/12/08 10:23:58;;;;;;;13.63;2.45;;;6.80;99.90;;;;;;5044239;28;20052;-85
2021/12/08 10:26:25;;;;;;;9.98;2.53;;;6.80;99.90;;;;;;5052107;28;20040;-85
2021/12/08 10:28:54;;;;;;;9.00;2.42;;;6.80;99.90;;;;;;5035719;28;20067;-85
2021/12/08 10:31:29;;;;;;;6.60;2.45;;;6.90;99.90;;;;;;5048886;28;20033;-85
2021/12/08 10:37:20;;;;;;;9.85;2.30;;;7.10;99.90;;;;;;5048087;28;20041;-85
2021/12/08 10:39:49;;;;;;;11.82;2.42;;;7.20;99.90;;;;;;5019798;28;20674;-85
2021/12/08 10:42:22;;;;;;;11.18;2.60;;;7.30;99.90;;;;;;5015450;28;20041;-84
2021/12/08 10:47:39;;;;;;;14.02;3.08;;;7.30;99.90;;;;;;5048685;28;20049;-85
2021/12/08 10:55:56;;;;;;;10.35;2.50;;;7.70;99.90;;;;;;5048881;28;20449;-85
2021/12/08 10:58:28;;;;;;;13.65;2.58;;;7.70;99.90;;;;;;5048314;28;20091;-85
2021/12/08 11:00:56;;;;;;;8.65;2.65;;;7.80;99.90;;;;;;5033636;28;20047;-85
2021/12/08 11:03:22;;;;;;;11.85;2.50;;;7.90;99.90;;;;;;5051386;28;20056;-85
2021/12/08 11:05:50;;;;;;;7.82;2.25;;;8.00;99.90;;;;;;5035508;28;20165;-85
2021/12/08 11:08:25;;;;;;;10.52;2.95;;;8.20;99.90;;;;;;5018729;28;20488;-85
2021/12/08 11:11:01;;;;;;;10.68;2.33;;;8.30;99.90;;;;;;5034588;28;20056;-85
2021/12/08 11:13:33;;;;;;;10.40;2.40;;;8.40;99.90;;;;;;5034086;28;20405;-85
2021/12/08 11:16:04;;;;;;;10.20;2.22;;;8.40;99.90;;;;;;5035336;28;20111;-85
2021/12/08 11:18:31;;;;;;;9.23;2.33;;;8.40;99.90;;;;;;5017944;28;20037;-85
2021/12/08 11:21:05;;;;;;;11.23;2.63;;;8.40;99.90;;;;;;5034642;28;20033;-85
2021/12/08 11:23:53;;;;;;;9.07;2.17;;;8.40;99.90;;;;;;5033986;28;20045;-86
2021/12/08 11:26:21;;;;;;;9.32;2.33;;;8.50;99.90;;;;;;5018720;28;20530;-85
2021/12/08 11:29:08;;;;;;;11.65;2.25;;;8.50;99.90;;;;;;5035419;28;20048;-84
2021/12/08 11:31:49;;;;;;;9.45;2.15;;;8.50;99.90;;;;;;5039121;28;20041;-85
2021/12/08 11:34:18;;;;;;;8.85;2.22;;;8.50;99.90;;;;;;5024913;28;20046;-84
2021/12/08 11:36:49;;;;;;;10.45;2.22;;;8.50;99.90;;;;;;5041497;28;20127;-84
2021/12/08 11:39:19;;;;;;;11.40;3.13;;;8.40;99.90;;;;;;5042209;28;20067;-85
2021/12/08 11:41:51;;;;;;;10.93;2.40;;;8.40;99.90;;;;;;5056229;28;20033;-84
2021/12/08 11:44:35;;;;;;;8.25;2.20;;;8.20;99.90;;;;;;5033658;28;20045;-85
2021/12/08 11:47:10;;;;;;;10.00;2.05;;;8.20;99.90;;;;;;5034347;28;20041;-84
2021/12/08 11:49:45;;;;;;;10.95;2.47;;;8.00;99.90;;;;;;4999852;28;20052;-84
2021/12/08 11:52:18;;;;;;;11.43;2.13;;;7.90;99.90;;;;;;5032301;28;20053;-84
2021/12/08 11:55:00;;;;;;;9.68;2.40;;;7.80;99.90;;;;;;5030855;28;20080;-84
2021/12/08 11:57:30;;;;;;;10.05;2.10;;;7.80;99.90;;;;;;5031245;28;20034;-85
2021/12/08 12:00:04;;;;;;;10.48;2.17;;;7.70;99.90;;;;;;5048202;28;20049;-84
2021/12/08 12:02:37;;;;;;;11.68;2.35;;;7.70;99.90;;;;;;5031444;28;20501;-84
2021/12/08 12:05:06;;;;;;;10.30;2.15;;;7.60;99.90;;;;;;5031618;28;20501;-85
2021/12/08 12:07:33;;;;;;;10.45;2.63;;;7.60;99.90;;;;;;5031500;28;20052;-84
2021/12/08 12:09:58;;;;;;;10.07;2.30;;;7.60;99.90;;;;;;5015916;28;20530;-85
2021/12/08 12:12:24;;;;;;;9.82;2.17;;;7.50;99.90;;;;;;5030745;28;20041;-85
2021/12/08 12:14:50;;;;;;;12.05;2.33;;;7.50;99.90;;;;;;5030036;28;20041;-85
2021/12/08 12:17:16;;;;;;;9.65;1.90;;;7.50;99.90;;;;;;5013777;28;20045;-86
2021/12/08 12:19:48;;;;;;;8.15;2.03;;;7.50;99.90;;;;;;5030209;28;20037;-85
2021/12/08 12:22:38;;;;;;;12.38;2.22;;;7.50;99.90;;;;;;5030876;28;20383;-85
2021/12/08 12:25:16;;;;;;;10.68;2.00;;;7.40;99.90;;;;;;5016337;28;20498;-85
2021/12/08 12:28:00;;;;;;;7.07;2.13;;;7.40;99.90;;;;;;5041367;28;20036;-85
2021/12/08 12:31:05;;;;;;;8.18;2.08;;;7.40;99.90;;;;;;5034147;28;20041;-85
2021/12/08 12:33:40;;;;;;;10.20;2.20;;;7.40;99.90;;;;;;5033201;28;20044;-85
2021/12/08 12:36:21;;;;;;;9.32;1.80;;;7.40;99.90;;;;;;5034169;28;20371;-85
2021/12/08 12:38:47;;;;;;;10.90;2.45;;;7.30;99.90;;;;;;5013701;28;20029;-85
2021/12/08 12:41:29;;;;;;;8.32;1.80;;;7.30;99.90;;;;;;5039546;28;20075;-86
2021/12/08 12:44:14;;;;;;;13.13;2.42;;;7.30;99.90;;;;;;5056500;28;20049;-85
2021/12/08 12:47:03;;;;;;;13.30;3.25;;;7.30;99.90;;;;;;5027919;28;20041;-84
2021/12/08 12:49:29;;;;;;;9.95;2.40;;;7.30;99.90;;;;;;5033765;28;20046;-85
2021/12/08 12:52:06;;;;;;;9.80;2.05;;;7.30;99.90;;;;;;5034165;28;20044;-85
2021/12/08 12:54:33;;;;;;;10.23;2.45;;;7.20;99.90;;;;;;5013853;28;20548;-85
2021/12/08 12:57:00;;;;;;;9.63;2.20;;;7.20;99.90;;;;;;5011947;28;20490;-85
2021/12/08 12:59:43;;;;;;;9.35;2.58;;;7.20;99.90;;;;;;5031034;28;20033;-84
2021/12/08 13:02:23;;;;;;;10.90;2.08;;;7.20;99.90;;;;;;5032982;28;20521;-85
2021/12/08 13:04:56;;;;;;;7.50;2.00;;;7.20;99.90;;;;;;5016414;28;20037;-85
2021/12/08 13:07:23;;;;;;;10.27;2.53;;;7.20;99.90;;;;;;5016852;28;20040;-85
2021/12/08 13:09:52;;;;;;;9.52;1.92;;;7.20;99.90;;;;;;5033249;28;20486;-85
2021/12/08 13:12:34;;;;;;;9.90;2.13;;;7.30;99.90;;;;;;5051079;28;20076;-85
2021/12/08 13:15:09;;;;;;;8.93;1.95;;;7.30;99.90;;;;;;5033245;28;20045;-85
2021/12/08 13:17:35;;;;;;;8.68;1.80;;;7.30;99.90;;;;;;5051014;28;20049;-85
2021/12/08 13:20:12;;;;;;;10.05;2.13;;;7.40;99.90;;;;;;5031525;28;20037;-85
2021/12/08 13:22:45;;;;;;;9.20;2.58;;;7.40;99.90;;;;;;5032707;28;20045;-84
2021/12/08 13:25:24;;;;;;;14.68;2.85;;;7.40;99.90;;;;;;5015106;28;20568;-84
2021/12/08 13:28:14;;;;;;;10.65;2.20;;;7.40;99.90;;;;;;5016630;28;20103;-85
2021/12/08 13:30:53;;;;;;;10.07;2.10;;;7.40;99.90;;;;;;5033211;28;20045;-84
2021/12/08 13:33:25;;;;;;;8.82;2.42;;;7.40;99.90;;;;;;5063672;28;20045;-84
2021/12/08 13:35:53;;;;;;;7.80;2.00;;;7.40;99.90;;;;;;5060004;28;20041;-84
2021/12/08 13:38:19;;;;;;;10.30;1.92;;;7.40;99.90;;;;;;5051964;28;20037;-85
2021/12/08 13:41:13;;;;;;;8.15;2.25;;;7.30;99.90;;;;;;5052910;28;20410;-85
2021/12/08 13:43:41;;;;;;;7.90;1.95;;;7.30;99.90;;;;;;5036712;28;20044;-84
2021/12/08 13:46:10;;;;;;;10.02;2.03;;;7.30;99.90;;;;;;5053625;28;20041;-84
2021/12/08 13:49:14;;;;;;;9.45;1.70;;;7.30;99.90;;;;;;5052693;28;20059;-85
2021/12/08 13:51:41;;;;;;;8.65;2.25;;;7.30;99.90;;;;;;5036138;28;20109;-85